Time;durP1;ratioP1;P1;durP2;ratioP2;P2;SDS_P1;SDS_P2;PMS_P1;PMS_P2;Temp;Humidity;BMP_temperature;BMP_pressure;BME280_temperature;BME280_humidity;BME280_pressure;Samples;Min_cycle;Max_cycle;Signal;HPM_P1;HPM_P2
2023/07/05 00:01:28;;;;;;;5.63;4.53;;;;;;;;;;4934945;28;20558;-76
2023/07/05 00:03:54;;;;;;;7.82;5.20;;;;;;;;;;4940492;28;20035;-77
2023/07/05 00:06:19;;;;;;;10.93;5.78;;;;;;;;;;4943198;28;20069;-77
2023/07/05 00:08:45;;;;;;;6.22;3.80;;;;;;;;;;4930885;28;20052;-77
2023/07/05 00:11:11;;;;;;;10.10;5.68;;;;;;;;;;4937372;28;20103;-76
2023/07/05 00:13:37;;;;;;;5.45;4.13;;;;;;;;;;4938020;28;20051;-76
2023/07/05 00:16:03;;;;;;;7.47;5.15;;;;;;;;;;4944863;28;20039;-76
2023/07/05 00:18:28;;;;;;;10.23;5.70;;;;;;;;;;4945323;28;20064;-76
2023/07/05 00:20:59;;;;;;;8.00;5.57;;;;;;;;;;4933428;28;20384;-76
2023/07/05 00:23:25;;;;;;;7.45;5.15;;;;;;;;;;4929345;28;20043;-76
2023/07/05 00:25:50;;;;;;;5.68;4.00;;;;;;;;;;4940951;28;20103;-76
2023/07/05 00:28:15;;;;;;;6.18;4.30;;;;;;;;;;4923740;28;20063;-76
2023/07/05 00:30:43;;;;;;;10.52;5.70;;;;;;;;;;4937996;28;20039;-77
2023/07/05 00:33:08;;;;;;;7.28;4.82;;;;;;;;;;4936487;28;20032;-76
2023/07/05 00:35:33;;;;;;;4.32;3.83;;;;;;;;;;4945073;28;20039;-76
2023/07/05 00:37:59;;;;;;;9.65;5.20;;;;;;;;;;4935186;28;20090;-76
2023/07/05 00:40:24;;;;;;;11.05;4.95;;;;;;;;;;4933239;28;20483;-76
2023/07/05 00:42:50;;;;;;;7.53;5.65;;;;;;;;;;4926527;28;20086;-76
2023/07/05 00:45:18;;;;;;;7.40;5.03;;;;;;;;;;4938432;28;20039;-76
2023/07/05 00:47:45;;;;;;;8.65;4.95;;;;;;;;;;4949247;28;20041;-76
2023/07/05 00:50:16;;;;;;;8.85;5.43;;;;;;;;;;4937669;28;20047;-77
2023/07/05 00:52:42;;;;;;;6.57;4.28;;;;;;;;;;4927593;28;20111;-76
2023/07/05 00:55:08;;;;;;;7.70;4.85;;;;;;;;;;4936641;28;20118;-76
2023/07/05 00:57:36;;;;;;;6.05;4.47;;;;;;;;;;4923269;28;20059;-76
2023/07/05 01:00:07;;;;;;;6.50;4.55;;;;;;;;;;4930634;28;20047;-76
2023/07/05 01:02:38;;;;;;;6.32;3.88;;;;;;;;;;4936749;28;20039;-76
2023/07/05 01:05:05;;;;;;;4.70;3.80;;;;;;;;;;4924364;28;20031;-77
2023/07/05 01:07:31;;;;;;;5.22;3.75;;;;;;;;;;4937723;28;20043;-77
2023/07/05 01:09:56;;;;;;;10.18;5.60;;;;;;;;;;4921874;29;20043;-77
2023/07/05 01:12:22;;;;;;;6.20;3.80;;;;;;;;;;4942687;28;20035;-77
2023/07/05 01:15:06;;;;;;;4.53;3.38;;;;;;;;;;4939292;28;20047;-77
2023/07/05 01:17:34;;;;;;;8.52;5.45;;;;;;;;;;4927439;28;20046;-77
2023/07/05 01:20:19;;;;;;;8.60;5.25;;;;;;;;;;4916409;29;20046;-77
2023/07/05 01:23:09;;;;;;;7.07;5.07;;;;;;;;;;4937259;28;20114;-77
2023/07/05 01:25:55;;;;;;;9.40;4.65;;;;;;;;;;4929723;28;20035;-77
2023/07/05 01:28:54;;;;;;;5.70;4.07;;;;;;;;;;4926155;28;20044;-77
2023/07/05 01:31:19;;;;;;;5.28;3.83;;;;;;;;;;4943403;28;20385;-77
2023/07/05 01:34:07;;;;;;;5.38;3.70;;;;;;;;;;4933843;28;20035;-77
2023/07/05 01:36:34;;;;;;;7.55;4.75;;;;;;;;;;4921588;28;20043;-77
2023/07/05 01:39:00;;;;;;;8.38;4.53;;;;;;;;;;4928019;28;20055;-76
2023/07/05 01:41:25;;;;;;;5.45;3.97;;;;;;;;;;4943616;28;20047;-76
2023/07/05 01:43:51;;;;;;;9.50;5.10;;;;;;;;;;4944136;28;20047;-77
2023/07/05 01:46:34;;;;;;;4.95;3.50;;;;;;;;;;4942772;28;20071;-76
2023/07/05 01:49:22;;;;;;;5.57;4.53;;;;;;;;;;4938467;28;20035;-76
2023/07/05 01:52:00;;;;;;;7.90;5.30;;;;;;;;;;4913725;28;20048;-76
2023/07/05 01:55:02;;;;;;;9.70;5.45;;;;;;;;;;4934515;28;20130;-76
2023/07/05 01:57:33;;;;;;;6.00;4.32;;;;;;;;;;4933296;28;20118;-76
2023/07/05 02:00:08;;;;;;;6.63;4.05;;;;;;;;;;4931892;28;20039;-76
2023/07/05 02:02:38;;;;;;;6.78;4.82;;;;;;;;;;4931595;28;20557;-76
2023/07/05 02:05:07;;;;;;;6.53;4.55;;;;;;;;;;4940284;28;20043;-76
2023/07/05 02:07:32;;;;;;;6.47;3.80;;;;;;;;;;4941768;28;20549;-77
2023/07/05 02:09:58;;;;;;;5.38;3.72;;;;;;;;;;4938985;28;20046;-77
2023/07/05 02:12:25;;;;;;;7.90;5.45;;;;;;;;;;4942647;28;20040;-76
2023/07/05 02:14:51;;;;;;;9.18;6.10;;;;;;;;;;4933598;28;20392;-77
2023/07/05 02:17:18;;;;;;;5.93;4.25;;;;;;;;;;4935552;28;20059;-76
2023/07/05 02:19:44;;;;;;;8.50;6.40;;;;;;;;;;4938992;28;20500;-76
2023/07/05 02:22:10;;;;;;;8.13;5.03;;;;;;;;;;4939003;28;20047;-77
2023/07/05 02:24:36;;;;;;;9.07;4.43;;;;;;;;;;4939720;28;20553;-77
2023/07/05 02:27:01;;;;;;;5.40;4.32;;;;;;;;;;4943636;28;20043;-77
2023/07/05 02:29:29;;;;;;;4.70;3.50;;;;;;;;;;4936813;28;20094;-76
2023/07/05 02:31:55;;;;;;;4.55;3.20;;;;;;;;;;4927778;28;20086;-77
2023/07/05 02:34:20;;;;;;;7.97;4.35;;;;;;;;;;4941360;28;20079;-77
2023/07/05 02:36:46;;;;;;;4.82;3.38;;;;;;;;;;4927958;28;20043;-77
2023/07/05 02:39:11;;;;;;;7.18;5.10;;;;;;;;;;4941268;28;20106;-77
2023/07/05 02:41:37;;;;;;;4.50;3.75;;;;;;;;;;4946964;28;20039;-77
2023/07/05 02:44:02;;;;;;;7.13;4.90;;;;;;;;;;4909310;28;20108;-77
2023/07/05 02:46:29;;;;;;;6.72;4.60;;;;;;;;;;4941819;28;20046;-76
2023/07/05 02:48:57;;;;;;;7.65;4.85;;;;;;;;;;4948180;28;20043;-77
2023/07/05 02:51:28;;;;;;;7.90;5.20;;;;;;;;;;4950553;28;20042;-76
2023/07/05 02:53:54;;;;;;;6.60;4.25;;;;;;;;;;4945862;28;20109;-77
2023/07/05 02:56:19;;;;;;;8.93;4.80;;;;;;;;;;4931683;28;20068;-77
2023/07/05 02:58:45;;;;;;;4.95;3.97;;;;;;;;;;4949542;28;20172;-77
2023/07/05 03:01:11;;;;;;;5.38;4.30;;;;;;;;;;4948817;28;20051;-77
2023/07/05 03:03:36;;;;;;;5.47;4.32;;;;;;;;;;4944082;28;20043;-77
2023/07/05 03:06:02;;;;;;;11.00;6.32;;;;;;;;;;4938151;28;20161;-76
2023/07/05 03:08:28;;;;;;;10.18;6.30;;;;;;;;;;4943340;28;20623;-77
2023/07/05 03:10:58;;;;;;;5.93;3.83;;;;;;;;;;4933428;28;20520;-77
2023/07/05 03:13:26;;;;;;;11.50;7.05;;;;;;;;;;4939984;28;20039;-77
2023/07/05 03:15:52;;;;;;;9.82;7.38;;;;;;;;;;4944253;28;20155;-77
2023/07/05 03:18:17;;;;;;;10.65;7.50;;;;;;;;;;4940062;28;20065;-76
2023/07/05 03:20:46;;;;;;;9.70;6.18;;;;;;;;;;4950415;28;20069;-76
2023/07/05 03:23:12;;;;;;;6.22;4.45;;;;;;;;;;4931116;28;20504;-76
2023/07/05 03:25:38;;;;;;;8.70;5.47;;;;;;;;;;4939888;28;20038;-75
2023/07/05 03:28:04;;;;;;;6.32;4.50;;;;;;;;;;4941000;28;20043;-76
2023/07/05 03:30:30;;;;;;;10.57;6.45;;;;;;;;;;4940570;28;20495;-76
2023/07/05 03:32:56;;;;;;;5.75;4.07;;;;;;;;;;4947598;28;20035;-77
2023/07/05 03:35:21;;;;;;;9.68;6.65;;;;;;;;;;4945850;28;20083;-77
2023/07/05 03:37:46;;;;;;;8.85;4.88;;;;;;;;;;4916114;28;20035;-77
2023/07/05 03:40:12;;;;;;;7.72;5.65;;;;;;;;;;4939523;28;20079;-76
2023/07/05 03:42:37;;;;;;;5.75;3.95;;;;;;;;;;4946219;28;20550;-76
2023/07/05 03:45:03;;;;;;;10.68;7.47;;;;;;;;;;4937452;28;20038;-76
2023/07/05 03:47:29;;;;;;;7.20;4.38;;;;;;;;;;4940181;28;20697;-77
2023/07/05 03:49:54;;;;;;;10.65;5.20;;;;;;;;;;4941978;28;20027;-77
2023/07/05 03:52:20;;;;;;;10.57;6.10;;;;;;;;;;4931136;28;20070;-77
2023/07/05 03:54:45;;;;;;;7.88;5.10;;;;;;;;;;4950449;28;20055;-76
2023/07/05 03:57:11;;;;;;;9.25;5.35;;;;;;;;;;4927987;28;20524;-76
2023/07/05 03:59:36;;;;;;;11.25;5.97;;;;;;;;;;4936224;28;20487;-75
2023/07/05 04:02:02;;;;;;;9.18;5.35;;;;;;;;;;4944687;28;20635;-76
2023/07/05 04:04:27;;;;;;;8.25;4.78;;;;;;;;;;4942474;28;20544;-76
2023/07/05 04:06:52;;;;;;;8.05;4.60;;;;;;;;;;4923093;28;20039;-75
2023/07/05 04:09:18;;;;;;;9.15;5.78;;;;;;;;;;4946206;28;20038;-76
2023/07/05 04:11:44;;;;;;;8.48;5.28;;;;;;;;;;4936861;28;20559;-76
2023/07/05 04:14:09;;;;;;;8.20;5.30;;;;;;;;;;4942000;28;20473;-76
2023/07/05 04:16:35;;;;;;;6.10;4.53;;;;;;;;;;4947879;28;20043;-76
2023/07/05 04:19:00;;;;;;;6.80;4.45;;;;;;;;;;4932096;28;20050;-77
2023/07/05 04:21:27;;;;;;;6.75;4.20;;;;;;;;;;4945690;28;20483;-76
2023/07/05 04:23:52;;;;;;;6.40;4.55;;;;;;;;;;4941642;28;20122;-75
2023/07/05 04:26:20;;;;;;;6.18;4.28;;;;;;;;;;4945583;28;20149;-76
2023/07/05 04:28:47;;;;;;;6.93;4.70;;;;;;;;;;4945937;28;20042;-76
2023/07/05 04:31:19;;;;;;;7.55;4.32;;;;;;;;;;4945169;28;20049;-76
2023/07/05 04:33:45;;;;;;;7.00;4.80;;;;;;;;;;4915628;28;20036;-76
2023/07/05 04:36:11;;;;;;;6.60;4.50;;;;;;;;;;4937877;28;20492;-76
2023/07/05 04:38:37;;;;;;;8.45;4.75;;;;;;;;;;4936531;28;20102;-75
2023/07/05 04:41:02;;;;;;;7.13;4.45;;;;;;;;;;4930647;28;20040;-76
2023/07/05 04:43:28;;;;;;;7.93;4.80;;;;;;;;;;4932279;28;20047;-76
2023/07/05 04:45:59;;;;;;;8.63;5.35;;;;;;;;;;4935792;28;20047;-76
2023/07/05 04:48:26;;;;;;;8.13;4.43;;;;;;;;;;4938642;28;20050;-76
2023/07/05 04:50:54;;;;;;;7.63;4.63;;;;;;;;;;4940896;28;20569;-76
2023/07/05 04:53:21;;;;;;;6.35;3.97;;;;;;;;;;4944384;28;20039;-76
2023/07/05 04:55:49;;;;;;;9.00;4.47;;;;;;;;;;4937805;28;20039;-77
2023/07/05 04:58:15;;;;;;;7.40;4.00;;;;;;;;;;4942944;28;20051;-76
2023/07/05 05:00:49;;;;;;;6.15;3.97;;;;;;;;;;4931038;28;20054;-76
2023/07/05 05:03:16;;;;;;;5.68;3.85;;;;;;;;;;4937611;28;20036;-76
2023/07/05 05:05:43;;;;;;;8.38;3.60;;;;;;;;;;4935181;28;20050;-77
2023/07/05 05:08:08;;;;;;;6.05;3.80;;;;;;;;;;4936217;28;20038;-77
2023/07/05 05:10:36;;;;;;;5.00;3.60;;;;;;;;;;4942018;28;20725;-77
2023/07/05 05:13:02;;;;;;;5.50;3.58;;;;;;;;;;4930713;28;20089;-77
2023/07/05 05:15:27;;;;;;;5.88;3.72;;;;;;;;;;4941723;28;20054;-76
2023/07/05 05:17:53;;;;;;;6.72;3.50;;;;;;;;;;4938804;28;20824;-77
2023/07/05 05:20:18;;;;;;;6.63;3.80;;;;;;;;;;4937580;28;20024;-77
2023/07/05 05:22:43;;;;;;;4.15;3.08;;;;;;;;;;4928809;29;20139;-77
2023/07/05 05:25:09;;;;;;;5.63;3.15;;;;;;;;;;4931284;29;20503;-78
2023/07/05 05:27:34;;;;;;;3.88;3.00;;;;;;;;;;4931859;29;20485;-77
2023/07/05 05:29:59;;;;;;;6.10;3.35;;;;;;;;;;4929799;29;20123;-77
2023/07/05 05:32:25;;;;;;;4.28;2.97;;;;;;;;;;4934181;29;20038;-77
2023/07/05 05:34:50;;;;;;;8.07;3.58;;;;;;;;;;4931178;29;20070;-77
2023/07/05 05:37:15;;;;;;;4.90;3.28;;;;;;;;;;4928259;29;20035;-77
2023/07/05 05:39:41;;;;;;;6.00;3.22;;;;;;;;;;4933772;28;20118;-77
2023/07/05 08:40:26;;;;;;;1.98;1.63;;;;;;;;;;4961766;28;20142;-86
2023/07/05 08:43:29;;;;;;;2.60;1.60;;;;;;;;;;4938506;28;20319;-77
2023/07/05 08:46:05;;;;;;;1.67;1.17;;;;;;;;;;4945550;28;20489;-77
2023/07/05 08:48:33;;;;;;;2.10;1.50;;;;;;;;;;4945322;28;20073;-78
2023/07/05 08:50:59;;;;;;;2.08;1.50;;;;;;;;;;4941532;28;20085;-77
2023/07/05 08:53:25;;;;;;;2.67;1.60;;;;;;;;;;4941618;28;20023;-78
2023/07/05 08:55:53;;;;;;;1.83;1.50;;;;;;;;;;4942479;28;20081;-78
2023/07/05 08:58:36;;;;;;;2.22;1.63;;;;;;;;;;4942364;28;20681;-78
2023/07/05 09:01:05;;;;;;;2.92;1.95;;;;;;;;;;4945682;28;20035;-78
2023/07/05 09:03:31;;;;;;;3.10;1.88;;;;;;;;;;4943908;28;20073;-78
2023/07/05 09:06:21;;;;;;;3.42;1.83;;;;;;;;;;4949970;28;20448;-77
2023/07/05 09:09:02;;;;;;;2.90;2.03;;;;;;;;;;4941566;28;20499;-77
2023/07/05 09:11:46;;;;;;;1.92;1.55;;;;;;;;;;4943828;28;20026;-77
2023/07/05 09:14:31;;;;;;;2.92;2.20;;;;;;;;;;4943809;28;20122;-77
2023/07/05 09:16:56;;;;;;;2.53;1.98;;;;;;;;;;4946616;28;20042;-78
2023/07/05 09:19:46;;;;;;;3.47;2.00;;;;;;;;;;4949334;28;20027;-77
2023/07/05 09:22:19;;;;;;;3.95;2.15;;;;;;;;;;4940539;28;20027;-77
2023/07/05 09:24:45;;;;;;;3.38;1.70;;;;;;;;;;4949223;28;20035;-77
2023/07/05 09:27:29;;;;;;;2.40;1.80;;;;;;;;;;4946162;28;20039;-78
2023/07/05 09:30:17;;;;;;;3.47;2.50;;;;;;;;;;4945798;28;20026;-78
2023/07/05 09:32:49;;;;;;;2.85;1.90;;;;;;;;;;4939742;28;20106;-77
2023/07/05 09:35:19;;;;;;;1.80;1.67;;;;;;;;;;4945549;28;20110;-78
2023/07/05 09:38:00;;;;;;;2.15;1.50;;;;;;;;;;4940671;28;20082;-78
2023/07/05 09:40:29;;;;;;;3.67;2.17;;;;;;;;;;4948876;28;20050;-78
2023/07/05 09:42:59;;;;;;;2.95;2.35;;;;;;;;;;4951827;28;20118;-78
2023/07/05 09:45:25;;;;;;;2.85;2.00;;;;;;;;;;4945777;28;20038;-78
2023/07/05 09:47:57;;;;;;;3.05;1.77;;;;;;;;;;4945577;28;20553;-79
2023/07/05 09:50:22;;;;;;;3.50;2.25;;;;;;;;;;4948982;28;20031;-78
2023/07/05 09:53:10;;;;;;;2.88;1.77;;;;;;;;;;4951695;28;20032;-78
2023/07/05 09:56:04;;;;;;;5.25;2.20;;;;;;;;;;4946543;28;20054;-78
2023/07/05 09:58:31;;;;;;;3.15;1.83;;;;;;;;;;4961875;28;20037;-78
2023/07/05 10:01:04;;;;;;;2.75;1.83;;;;;;;;;;4952760;28;20038;-78
2023/07/05 10:03:47;;;;;;;2.85;2.10;;;;;;;;;;4962301;28;20224;-79
2023/07/05 10:06:18;;;;;;;4.93;1.98;;;;;;;;;;4947664;28;20071;-79
2023/07/05 10:08:50;;;;;;;6.28;1.98;;;;;;;;;;4948539;28;20484;-78
2023/07/05 10:11:33;;;;;;;3.13;2.20;;;;;;;;;;4950121;28;20043;-78
2023/07/05 10:14:04;;;;;;;2.88;1.77;;;;;;;;;;4963625;28;20030;-79
2023/07/05 10:16:50;;;;;;;2.65;1.83;;;;;;;;;;4949704;28;20035;-78
2023/07/05 10:19:28;;;;;;;2.45;1.95;;;;;;;;;;4966136;28;20045;-79
2023/07/05 10:22:15;;;;;;;3.10;1.88;;;;;;;;;;4949287;28;20027;-79
2023/07/05 10:24:51;;;;;;;1.88;1.50;;;;;;;;;;4945697;28;20035;-78
2023/07/05 10:27:40;;;;;;;2.55;1.70;;;;;;;;;;4943319;28;20034;-78
2023/07/05 10:30:13;;;;;;;4.43;2.03;;;;;;;;;;4963142;28;20418;-78
2023/07/05 10:32:40;;;;;;;7.80;1.80;;;;;;;;;;4943675;28;20031;-78
2023/07/05 10:35:27;;;;;;;3.65;1.95;;;;;;;;;;4949401;28;20042;-78
2023/07/05 10:37:53;;;;;;;4.53;1.33;;;;;;;;;;4950716;28;20057;-78
2023/07/05 10:40:21;;;;;;;3.90;1.77;;;;;;;;;;4949404;28;20023;-79
2023/07/05 10:42:51;;;;;;;3.10;1.88;;;;;;;;;;4950613;28;20031;-79
2023/07/05 10:45:19;;;;;;;3.25;1.92;;;;;;;;;;4945607;28;20035;-79
2023/07/05 10:47:48;;;;;;;5.28;2.33;;;;;;;;;;4945137;28;20042;-79
2023/07/05 10:50:15;;;;;;;3.08;1.98;;;;;;;;;;4948663;28;20067;-78
2023/07/05 10:52:55;;;;;;;3.90;1.83;;;;;;;;;;4943221;28;20037;-79
2023/07/05 10:55:40;;;;;;;3.35;2.15;;;;;;;;;;4947018;28;20023;-78
2023/07/05 10:58:13;;;;;;;3.75;1.88;;;;;;;;;;4951250;28;20027;-78
2023/07/05 11:00:45;;;;;;;3.33;1.80;;;;;;;;;;4956964;28;20030;-79
2023/07/05 11:03:32;;;;;;;2.83;1.73;;;;;;;;;;4947712;28;20099;-78
2023/07/05 11:06:00;;;;;;;2.28;1.67;;;;;;;;;;4951947;28;20484;-79
2023/07/05 11:08:34;;;;;;;3.97;1.55;;;;;;;;;;4947278;28;20463;-79
2023/07/05 11:11:05;;;;;;;3.83;1.75;;;;;;;;;;4945725;28;20246;-79
2023/07/05 11:13:30;;;;;;;2.42;1.50;;;;;;;;;;4951800;28;20102;-78
2023/07/05 11:15:56;;;;;;;3.90;1.20;;;;;;;;;;4951869;28;20485;-78
2023/07/05 11:18:23;;;;;;;3.25;1.50;;;;;;;;;;4951423;28;20031;-78
2023/07/05 11:20:54;;;;;;;2.40;1.05;;;;;;;;;;4957513;28;20085;-78
2023/07/05 11:23:44;;;;;;;1.65;1.00;;;;;;;;;;4956131;28;20027;-78
2023/07/05 11:26:28;;;;;;;;;;;;;;;;;;4957050;28;20023;-79
2023/07/05 11:28:53;;;;;;;2.00;0.98;;;;;;;;;;4954971;28;20373;-80
2023/07/05 11:31:28;;;;;;;0.77;0.73;;;;;;;;;;4958115;28;20425;-78
2023/07/05 11:34:31;;;;;;;2.20;1.20;;;;;;;;;;4946174;28;20032;-78
2023/07/05 11:37:03;;;;;;;3.38;1.30;;;;;;;;;;4943120;28;20118;-78
2023/07/05 11:39:37;;;;;;;1.05;0.93;;;;;;;;;;4950417;28;20039;-78
2023/07/05 11:42:15;;;;;;;1.63;1.40;;;;;;;;;;4942113;28;20547;-78
2023/07/05 11:44:44;;;;;;;1.23;1.10;;;;;;;;;;4943830;28;20102;-78
2023/07/05 11:47:30;;;;;;;1.30;1.20;;;;;;;;;;4949000;28;20035;-78
2023/07/05 11:50:06;;;;;;;2.28;1.23;;;;;;;;;;4946150;28;20034;-78
2023/07/05 11:52:37;;;;;;;1.77;1.20;;;;;;;;;;4963459;28;20027;-78
2023/07/05 11:55:09;;;;;;;1.77;1.50;;;;;;;;;;4962270;28;20355;-78
2023/07/05 11:58:08;;;;;;;2.10;1.13;;;;;;;;;;4942020;28;20059;-78
2023/07/05 12:00:45;;;;;;;1.10;1.00;;;;;;;;;;4942807;28;20110;-78
2023/07/05 12:03:17;;;;;;;2.33;1.13;;;;;;;;;;4965332;28;20099;-78
2023/07/05 12:05:44;;;;;;;1.38;0.98;;;;;;;;;;4947050;28;20026;-78
2023/07/05 12:08:15;;;;;;;2.13;1.05;;;;;;;;;;4948678;28;20384;-78
2023/07/05 12:10:51;;;;;;;2.83;1.10;;;;;;;;;;4949679;28;20050;-78
2023/07/05 12:13:26;;;;;;;2.22;1.00;;;;;;;;;;4946492;28;20098;-78
2023/07/05 12:15:53;;;;;;;1.27;1.08;;;;;;;;;;4946495;28;20034;-78
2023/07/05 12:18:20;;;;;;;1.48;1.00;;;;;;;;;;4946490;28;20529;-78
2023/07/05 12:20:54;;;;;;;1.48;1.17;;;;;;;;;;4942607;28;20512;-78
2023/07/05 12:23:21;;;;;;;1.48;1.20;;;;;;;;;;4943007;28;20041;-78
2023/07/05 12:25:53;;;;;;;1.15;1.05;;;;;;;;;;4946469;28;20058;-78
2023/07/05 12:28:25;;;;;;;1.95;1.10;;;;;;;;;;4945980;28;20384;-78
2023/07/05 12:31:01;;;;;;;1.88;1.02;;;;;;;;;;4948014;28;20069;-78
2023/07/05 12:33:30;;;;;;;1.17;1.02;;;;;;;;;;4942015;28;20042;-77
2023/07/05 12:36:11;;;;;;;1.48;1.05;;;;;;;;;;4939394;28;20476;-78
2023/07/05 12:38:39;;;;;;;1.13;1.00;;;;;;;;;;4946873;28;20027;-78
2023/07/05 12:41:13;;;;;;;1.42;1.00;;;;;;;;;;4944434;28;20391;-79
2023/07/05 12:43:38;;;;;;;2.47;1.20;;;;;;;;;;4937237;28;20027;-78
2023/07/05 12:46:11;;;;;;;1.10;1.00;;;;;;;;;;4942627;28;20089;-78
2023/07/05 12:48:37;;;;;;;1.15;0.93;;;;;;;;;;4950593;28;20111;-78
2023/07/05 12:51:12;;;;;;;1.38;0.73;;;;;;;;;;4960003;28;20071;-78
2023/07/05 12:53:38;;;;;;;2.05;1.08;;;;;;;;;;4946922;28;20107;-79
2023/07/05 12:56:10;;;;;;;1.52;0.82;;;;;;;;;;4942145;28;20023;-79
2023/07/05 12:58:39;;;;;;;1.23;1.00;;;;;;;;;;4948064;28;20027;-78
2023/07/05 13:01:11;;;;;;;1.52;0.82;;;;;;;;;;4945187;28;20042;-78
2023/07/05 13:03:44;;;;;;;2.10;1.17;;;;;;;;;;4960168;28;20253;-78
2023/07/05 13:06:10;;;;;;;1.52;1.10;;;;;;;;;;4943382;28;20027;-78
2023/07/05 13:08:36;;;;;;;1.25;0.82;;;;;;;;;;4943100;28;20113;-78
2023/07/05 13:11:03;;;;;;;1.05;0.90;;;;;;;;;;4964619;28;20512;-79
2023/07/05 13:13:34;;;;;;;1.08;0.88;;;;;;;;;;4947120;28;20023;-79
2023/07/05 13:16:24;;;;;;;1.10;0.70;;;;;;;;;;4949744;28;20034;-78
2023/07/05 13:18:56;;;;;;;1.02;0.90;;;;;;;;;;4948689;28;20020;-79
2023/07/05 13:21:21;;;;;;;1.48;0.90;;;;;;;;;;4967439;28;20034;-79
2023/07/05 13:23:49;;;;;;;3.33;1.45;;;;;;;;;;4952442;28;20027;-77
2023/07/05 13:26:30;;;;;;;1.70;0.90;;;;;;;;;;4952921;28;20058;-77
2023/07/05 13:28:59;;;;;;;;;;;;;;;;;;4945616;28;20049;-78
2023/07/05 13:31:25;;;;;;;1.38;0.90;;;;;;;;;;4950332;28;20014;-78
2023/07/05 13:33:55;;;;;;;1.40;1.10;;;;;;;;;;4948328;28;20027;-77
2023/07/05 13:36:21;;;;;;;2.63;1.00;;;;;;;;;;4950601;28;20031;-77
2023/07/05 13:38:46;;;;;;;1.55;0.95;;;;;;;;;;4947977;28;20032;-78
2023/07/05 13:41:12;;;;;;;2.60;1.30;;;;;;;;;;4948621;28;20061;-78
2023/07/05 13:43:38;;;;;;;0.70;0.60;;;;;;;;;;4951122;28;20030;-78
2023/07/05 13:46:04;;;;;;;1.63;1.10;;;;;;;;;;4952310;28;20062;-79
2023/07/05 13:48:30;;;;;;;1.90;1.05;;;;;;;;;;4947912;28;20019;-78
2023/07/05 13:50:55;;;;;;;1.33;1.00;;;;;;;;;;4948460;28;20027;-78
2023/07/05 13:53:24;;;;;;;1.38;1.17;;;;;;;;;;4951358;28;20085;-78
2023/07/05 13:55:51;;;;;;;1.10;0.95;;;;;;;;;;4951871;28;20027;-78
2023/07/05 13:58:17;;;;;;;3.22;1.10;;;;;;;;;;4951018;28;20020;-78
2023/07/05 14:00:46;;;;;;;1.63;1.13;;;;;;;;;;4962014;28;20028;-79
2023/07/05 14:03:13;;;;;;;2.28;1.65;;;;;;;;;;4942960;28;20051;-79
2023/07/05 14:05:39;;;;;;;3.60;1.42;;;;;;;;;;4947454;28;20023;-78
2023/07/05 14:08:06;;;;;;;1.33;1.00;;;;;;;;;;4951752;28;20182;-77
2023/07/05 14:10:33;;;;;;;2.10;1.13;;;;;;;;;;4951009;28;20070;-78
2023/07/05 14:13:00;;;;;;;1.65;1.00;;;;;;;;;;4948380;28;20034;-78
2023/07/05 14:15:31;;;;;;;1.55;0.88;;;;;;;;;;4967087;28;20115;-79
2023/07/05 14:17:57;;;;;;;1.20;1.00;;;;;;;;;;4946586;28;20037;-77
2023/07/05 14:20:24;;;;;;;2.42;1.23;;;;;;;;;;4949794;28;20463;-79
2023/07/05 14:22:50;;;;;;;2.53;1.10;;;;;;;;;;4949297;28;20024;-78
2023/07/05 14:25:21;;;;;;;1.40;1.05;;;;;;;;;;4942140;28;20124;-79
2023/07/05 14:27:47;;;;;;;2.38;1.10;;;;;;;;;;4963337;28;20065;-79
2023/07/05 14:30:13;;;;;;;1.90;1.27;;;;;;;;;;4955730;28;20031;-76
2023/07/05 14:32:39;;;;;;;1.60;1.15;;;;;;;;;;4954744;28;20034;-78
2023/07/05 14:35:21;;;;;;;1.10;0.90;;;;;;;;;;4947926;28;20023;-78
2023/07/05 14:37:53;;;;;;;1.85;1.10;;;;;;;;;;4952203;28;20103;-77
2023/07/05 14:40:26;;;;;;;1.63;1.20;;;;;;;;;;4952649;28;20058;-79
2023/07/05 14:42:52;;;;;;;1.73;1.02;;;;;;;;;;4946635;28;20035;-79
2023/07/05 14:45:25;;;;;;;2.85;1.40;;;;;;;;;;4952016;28;20444;-79
2023/07/05 14:47:54;;;;;;;2.80;1.40;;;;;;;;;;4956745;28;20023;-79
2023/07/05 14:50:20;;;;;;;3.33;1.33;;;;;;;;;;4948988;28;20027;-78
2023/07/05 14:52:46;;;;;;;3.92;1.50;;;;;;;;;;4945643;28;20038;-78
2023/07/05 14:55:14;;;;;;;2.92;1.42;;;;;;;;;;4961142;28;20031;-78
2023/07/05 14:57:41;;;;;;;2.13;1.23;;;;;;;;;;4939441;28;20031;-78
2023/07/05 15:00:07;;;;;;;3.10;1.63;;;;;;;;;;4962448;28;20041;-79
2023/07/05 15:02:34;;;;;;;4.20;1.50;;;;;;;;;;4945079;28;20043;-79
2023/07/05 15:05:00;;;;;;;2.65;1.42;;;;;;;;;;4945282;28;20040;-78
2023/07/05 15:07:25;;;;;;;2.30;1.50;;;;;;;;;;4941634;28;20039;-78
2023/07/05 15:09:51;;;;;;;2.97;1.27;;;;;;;;;;4963218;28;20094;-78
2023/07/05 15:12:16;;;;;;;2.00;1.55;;;;;;;;;;4949157;28;20028;-77
2023/07/05 15:14:42;;;;;;;2.90;1.63;;;;;;;;;;4954543;28;20102;-77
2023/07/05 15:17:07;;;;;;;2.55;1.50;;;;;;;;;;4944941;28;20695;-78
2023/07/05 15:19:33;;;;;;;2.88;1.58;;;;;;;;;;4950643;28;20049;-78
2023/07/05 15:21:58;;;;;;;3.45;1.70;;;;;;;;;;4947205;28;20035;-76
2023/07/05 15:24:24;;;;;;;3.97;1.50;;;;;;;;;;4947747;28;20299;-78
2023/07/05 15:26:49;;;;;;;2.83;1.40;;;;;;;;;;4946847;28;20027;-78
2023/07/05 15:29:16;;;;;;;3.08;1.80;;;;;;;;;;4962451;28;20039;-78
2023/07/05 15:31:41;;;;;;;3.03;1.90;;;;;;;;;;4948943;28;20037;-78
2023/07/05 15:34:07;;;;;;;3.63;1.70;;;;;;;;;;4945674;28;20106;-78
2023/07/05 15:36:32;;;;;;;4.60;2.20;;;;;;;;;;4964174;28;20411;-78
2023/07/05 15:38:58;;;;;;;3.53;1.80;;;;;;;;;;4946068;28;20101;-78
2023/07/05 15:41:23;;;;;;;3.03;1.80;;;;;;;;;;4946930;28;20555;-78
2023/07/05 15:43:49;;;;;;;2.22;1.65;;;;;;;;;;4946883;28;20035;-78
2023/07/05 15:46:15;;;;;;;2.80;1.55;;;;;;;;;;4962488;28;20134;-78
2023/07/05 15:48:40;;;;;;;3.17;1.58;;;;;;;;;;4945992;28;20031;-78
2023/07/05 15:51:06;;;;;;;5.07;1.90;;;;;;;;;;4946201;28;20120;-78
2023/07/05 15:53:31;;;;;;;3.40;1.60;;;;;;;;;;4946909;28;20027;-78
2023/07/05 15:55:58;;;;;;;2.45;1.85;;;;;;;;;;4945992;28;20484;-78
2023/07/05 15:58:29;;;;;;;3.03;1.48;;;;;;;;;;4946603;28;20130;-78
2023/07/05 16:01:03;;;;;;;3.70;1.90;;;;;;;;;;4949586;28;20514;-78
2023/07/05 16:03:28;;;;;;;3.47;1.70;;;;;;;;;;4947253;28;20043;-78
2023/07/05 16:05:54;;;;;;;3.60;1.63;;;;;;;;;;4962645;28;20034;-78
2023/07/05 16:08:20;;;;;;;3.63;1.90;;;;;;;;;;4947962;28;20113;-78
2023/07/05 16:10:45;;;;;;;3.72;1.80;;;;;;;;;;4951424;28;20094;-78
2023/07/05 16:13:11;;;;;;;4.68;1.60;;;;;;;;;;4946586;28;20023;-77
2023/07/05 16:15:37;;;;;;;2.65;1.75;;;;;;;;;;4950374;28;20074;-78
2023/07/05 16:18:05;;;;;;;1.38;1.27;;;;;;;;;;4966077;28;20483;-78
2023/07/05 16:20:32;;;;;;;2.95;1.88;;;;;;;;;;4952230;28;20090;-77
2023/07/05 16:22:58;;;;;;;4.53;2.17;;;;;;;;;;4953787;28;20034;-77
2023/07/05 16:25:24;;;;;;;2.47;1.80;;;;;;;;;;4947153;28;20019;-78
2023/07/05 16:27:50;;;;;;;4.10;1.90;;;;;;;;;;4949934;28;20407;-78
2023/07/05 16:30:16;;;;;;;2.60;1.80;;;;;;;;;;4950052;28;20531;-78
2023/07/05 16:32:43;;;;;;;3.65;1.63;;;;;;;;;;4947509;28;20046;-77
2023/07/05 16:35:09;;;;;;;4.85;1.83;;;;;;;;;;4947820;28;20038;-77
2023/07/05 16:37:34;;;;;;;1.73;1.52;;;;;;;;;;4945026;28;20050;-78
2023/07/05 16:40:00;;;;;;;3.15;1.90;;;;;;;;;;4945652;28;20301;-77
2023/07/05 16:42:30;;;;;;;3.90;1.90;;;;;;;;;;4946633;28;20399;-78
2023/07/05 16:44:56;;;;;;;5.07;2.13;;;;;;;;;;4939105;28;20141;-77
2023/07/05 16:47:22;;;;;;;4.10;1.90;;;;;;;;;;4945599;28;20102;-77
2023/07/05 16:49:48;;;;;;;2.33;1.67;;;;;;;;;;4949967;28;20023;-77
2023/07/05 16:52:13;;;;;;;3.03;1.73;;;;;;;;;;4948514;28;20038;-78
2023/07/05 16:54:39;;;;;;;2.55;1.60;;;;;;;;;;4952087;28;20030;-78
2023/07/05 16:57:06;;;;;;;2.65;1.52;;;;;;;;;;4948357;28;20030;-77
2023/07/05 16:59:32;;;;;;;3.05;1.80;;;;;;;;;;4952256;28;20145;-77
2023/07/05 17:01:58;;;;;;;2.13;1.50;;;;;;;;;;4949651;28;20035;-77
2023/07/05 17:04:25;;;;;;;1.92;1.30;;;;;;;;;;4954415;28;20487;-77
2023/07/05 17:06:52;;;;;;;5.78;1.90;;;;;;;;;;4953777;28;20033;-78
2023/07/05 17:09:19;;;;;;;3.70;1.70;;;;;;;;;;4948630;28;20019;-77
2023/07/05 17:11:45;;;;;;;5.90;1.90;;;;;;;;;;4948926;28;20428;-77
2023/07/05 17:14:10;;;;;;;4.05;1.83;;;;;;;;;;4947657;28;20566;-77
2023/07/05 17:16:36;;;;;;;5.60;1.55;;;;;;;;;;4948204;28;20066;-77
2023/07/05 17:19:02;;;;;;;2.97;1.67;;;;;;;;;;4945853;28;20053;-77
2023/07/05 17:21:27;;;;;;;3.67;1.80;;;;;;;;;;4945556;28;20027;-77
2023/07/05 17:23:54;;;;;;;3.05;1.70;;;;;;;;;;4945054;28;20104;-77
2023/07/05 17:26:19;;;;;;;2.30;1.48;;;;;;;;;;4946860;28;20635;-77
2023/07/05 17:28:45;;;;;;;2.35;1.33;;;;;;;;;;4948837;28;20115;-77
2023/07/05 17:31:22;;;;;;;2.40;1.50;;;;;;;;;;4946243;28;20323;-77
2023/07/05 17:33:49;;;;;;;2.90;1.38;;;;;;;;;;4949163;28;20034;-77
2023/07/05 17:36:18;;;;;;;1.92;1.40;;;;;;;;;;4948986;28;20491;-77
2023/07/05 17:38:44;;;;;;;2.47;1.60;;;;;;;;;;4949286;28;20111;-77
2023/07/05 17:41:10;;;;;;;4.00;1.80;;;;;;;;;;4950182;28;20171;-77
2023/07/05 17:43:36;;;;;;;2.58;1.45;;;;;;;;;;4943877;28;20098;-77
2023/07/05 17:46:21;;;;;;;2.53;1.50;;;;;;;;;;4941329;28;20031;-77
2023/07/05 17:48:47;;;;;;;3.55;1.63;;;;;;;;;;4942416;28;20023;-77
2023/07/05 17:51:13;;;;;;;1.90;1.30;;;;;;;;;;4943571;28;20033;-77
2023/07/05 17:53:40;;;;;;;2.35;1.42;;;;;;;;;;4950842;28;20051;-77
2023/07/05 17:56:07;;;;;;;2.97;1.38;;;;;;;;;;4944501;28;20109;-76